sensor_id;sensor_type;location;lat;lon;timestamp;P1;durP1;ratioP1;P2;durP2;ratioP2
80381;SDS011;69692;55.820;37.490;2023-09-19T00:00:46;18.05;;;10.85;;
80381;SDS011;69692;55.820;37.490;2023-09-19T00:03:15;13.77;;;9.80;;
80381;SDS011;69692;55.820;37.490;2023-09-19T00:05:41;12.85;;;8.00;;
80381;SDS011;69692;55.820;37.490;2023-09-19T00:08:10;14.60;;;8.90;;
80381;SDS011;69692;55.820;37.490;2023-09-19T00:10:38;15.40;;;9.85;;
80381;SDS011;69692;55.820;37.490;2023-09-19T00:13:06;16.73;;;9.60;;
80381;SDS011;69692;55.820;37.490;2023-09-19T00:15:39;16.15;;;9.40;;
80381;SDS011;69692;55.820;37.490;2023-09-19T00:18:06;14.85;;;9.73;;
80381;SDS011;69692;55.820;37.490;2023-09-19T00:20:32;14.70;;;8.63;;
80381;SDS011;69692;55.820;37.490;2023-09-19T00:23:00;14.43;;;8.43;;
80381;SDS011;69692;55.820;37.490;2023-09-19T00:25:34;16.48;;;9.60;;
80381;SDS011;69692;55.820;37.490;2023-09-19T00:28:03;14.52;;;8.15;;
80381;SDS011;69692;55.820;37.490;2023-09-19T00:30:30;13.60;;;8.02;;
80381;SDS011;69692;55.820;37.490;2023-09-19T00:32:57;13.75;;;8.30;;
80381;SDS011;69692;55.820;37.490;2023-09-19T00:35:23;12.90;;;9.05;;
80381;SDS011;69692;55.820;37.490;2023-09-19T00:37:53;13.90;;;8.90;;
80381;SDS011;69692;55.820;37.490;2023-09-19T00:40:19;14.43;;;9.48;;
80381;SDS011;69692;55.820;37.490;2023-09-19T00:42:47;18.02;;;8.38;;
80381;SDS011;69692;55.820;37.490;2023-09-19T00:45:14;16.73;;;8.57;;
80381;SDS011;69692;55.820;37.490;2023-09-19T00:47:46;13.45;;;8.30;;
80381;SDS011;69692;55.820;37.490;2023-09-19T00:50:16;17.83;;;9.60;;
80381;SDS011;69692;55.820;37.490;2023-09-19T00:52:46;12.90;;;7.85;;
80381;SDS011;69692;55.820;37.490;2023-09-19T00:55:15;17.23;;;9.52;;
80381;SDS011;69692;55.820;37.490;2023-09-19T00:57:46;12.13;;;8.15;;
80381;SDS011;69692;55.820;37.490;2023-09-19T01:00:15;13.18;;;8.70;;
80381;SDS011;69692;55.820;37.490;2023-09-19T01:02:42;12.63;;;9.50;;
80381;SDS011;69692;55.820;37.490;2023-09-19T01:05:09;11.93;;;7.97;;
80381;SDS011;69692;55.820;37.490;2023-09-19T01:07:35;16.98;;;8.48;;
80381;SDS011;69692;55.820;37.490;2023-09-19T01:10:04;15.15;;;8.93;;
80381;SDS011;69692;55.820;37.490;2023-09-19T01:15:53;17.40;;;9.73;;
80381;SDS011;69692;55.820;37.490;2023-09-19T01:20:51;16.85;;;9.60;;
80381;SDS011;69692;55.820;37.490;2023-09-19T01:26:11;15.18;;;11.52;;
80381;SDS011;69692;55.820;37.490;2023-09-19T01:31:39;17.40;;;8.85;;
80381;SDS011;69692;55.820;37.490;2023-09-19T01:34:07;13.45;;;8.60;;
80381;SDS011;69692;55.820;37.490;2023-09-19T01:36:35;13.73;;;9.90;;
80381;SDS011;69692;55.820;37.490;2023-09-19T01:39:06;13.27;;;9.05;;
80381;SDS011;69692;55.820;37.490;2023-09-19T01:41:54;13.50;;;8.07;;
80381;SDS011;69692;55.820;37.490;2023-09-19T01:44:40;12.20;;;8.77;;
80381;SDS011;69692;55.820;37.490;2023-09-19T01:47:37;11.35;;;8.07;;
80381;SDS011;69692;55.820;37.490;2023-09-19T01:50:22;12.25;;;9.32;;
80381;SDS011;69692;55.820;37.490;2023-09-19T01:53:33;13.98;;;8.65;;
80381;SDS011;69692;55.820;37.490;2023-09-19T01:56:07;15.13;;;8.18;;
80381;SDS011;69692;55.820;37.490;2023-09-19T02:01:16;14.10;;;9.90;;
80381;SDS011;69692;55.820;37.490;2023-09-19T02:03:45;14.82;;;8.13;;
80381;SDS011;69692;55.820;37.490;2023-09-19T02:06:15;14.07;;;10.23;;
80381;SDS011;69692;55.820;37.490;2023-09-19T02:08:43;12.07;;;8.20;;
80381;SDS011;69692;55.820;37.490;2023-09-19T02:11:13;12.30;;;7.90;;
80381;SDS011;69692;55.820;37.490;2023-09-19T02:13:40;14.30;;;9.70;;
80381;SDS011;69692;55.820;37.490;2023-09-19T02:16:08;14.68;;;9.25;;
80381;SDS011;69692;55.820;37.490;2023-09-19T02:18:36;14.77;;;8.70;;
80381;SDS011;69692;55.820;37.490;2023-09-19T02:21:03;15.95;;;9.25;;
80381;SDS011;69692;55.820;37.490;2023-09-19T02:23:30;13.80;;;9.57;;
80381;SDS011;69692;55.820;37.490;2023-09-19T02:25:58;13.30;;;9.43;;
80381;SDS011;69692;55.820;37.490;2023-09-19T02:28:29;14.02;;;10.15;;
80381;SDS011;69692;55.820;37.490;2023-09-19T02:30:58;14.02;;;8.93;;
80381;SDS011;69692;55.820;37.490;2023-09-19T02:33:24;14.63;;;9.40;;
80381;SDS011;69692;55.820;37.490;2023-09-19T02:35:56;17.00;;;9.68;;
80381;SDS011;69692;55.820;37.490;2023-09-19T02:38:27;16.40;;;9.95;;
80381;SDS011;69692;55.820;37.490;2023-09-19T02:40:54;19.40;;;9.90;;
80381;SDS011;69692;55.820;37.490;2023-09-19T02:43:21;17.35;;;10.85;;
80381;SDS011;69692;55.820;37.490;2023-09-19T02:45:48;18.20;;;11.38;;
80381;SDS011;69692;55.820;37.490;2023-09-19T02:48:20;14.38;;;9.60;;
80381;SDS011;69692;55.820;37.490;2023-09-19T02:50:49;14.82;;;9.43;;
80381;SDS011;69692;55.820;37.490;2023-09-19T02:53:15;16.42;;;9.35;;
80381;SDS011;69692;55.820;37.490;2023-09-19T02:55:41;16.70;;;10.73;;
80381;SDS011;69692;55.820;37.490;2023-09-19T02:58:08;12.55;;;9.00;;
80381;SDS011;69692;55.820;37.490;2023-09-19T03:00:37;13.68;;;8.90;;
80381;SDS011;69692;55.820;37.490;2023-09-19T03:03:04;13.48;;;9.68;;
80381;SDS011;69692;55.820;37.490;2023-09-19T03:05:32;14.57;;;10.48;;
80381;SDS011;69692;55.820;37.490;2023-09-19T03:07:59;14.30;;;9.63;;
80381;SDS011;69692;55.820;37.490;2023-09-19T03:10:30;14.68;;;9.43;;
80381;SDS011;69692;55.820;37.490;2023-09-19T03:12:58;15.18;;;9.73;;
80381;SDS011;69692;55.820;37.490;2023-09-19T03:15:27;17.35;;;9.77;;
80381;SDS011;69692;55.820;37.490;2023-09-19T03:17:54;15.05;;;8.98;;
80381;SDS011;69692;55.820;37.490;2023-09-19T03:20:22;15.20;;;10.32;;
80381;SDS011;69692;55.820;37.490;2023-09-19T03:22:50;13.68;;;9.45;;
80381;SDS011;69692;55.820;37.490;2023-09-19T03:25:16;12.23;;;8.45;;
80381;SDS011;69692;55.820;37.490;2023-09-19T03:27:45;13.98;;;9.65;;
80381;SDS011;69692;55.820;37.490;2023-09-19T03:30:12;12.73;;;8.90;;
80381;SDS011;69692;55.820;37.490;2023-09-19T03:32:47;15.32;;;9.23;;
80381;SDS011;69692;55.820;37.490;2023-09-19T03:35:16;21.88;;;9.88;;
80381;SDS011;69692;55.820;37.490;2023-09-19T03:37:43;12.43;;;9.05;;
80381;SDS011;69692;55.820;37.490;2023-09-19T03:40:10;15.80;;;9.10;;
80381;SDS011;69692;55.820;37.490;2023-09-19T03:42:38;14.23;;;8.68;;
80381;SDS011;69692;55.820;37.490;2023-09-19T03:45:04;15.85;;;11.73;;
80381;SDS011;69692;55.820;37.490;2023-09-19T03:47:32;14.70;;;10.25;;
80381;SDS011;69692;55.820;37.490;2023-09-19T03:50:01;17.17;;;10.88;;
80381;SDS011;69692;55.820;37.490;2023-09-19T03:52:29;14.00;;;9.25;;
80381;SDS011;69692;55.820;37.490;2023-09-19T03:54:55;14.02;;;10.65;;
80381;SDS011;69692;55.820;37.490;2023-09-19T03:57:21;14.25;;;10.30;;
80381;SDS011;69692;55.820;37.490;2023-09-19T03:59:47;15.05;;;8.48;;
80381;SDS011;69692;55.820;37.490;2023-09-19T04:02:13;15.98;;;10.02;;
80381;SDS011;69692;55.820;37.490;2023-09-19T04:04:49;16.33;;;10.85;;
80381;SDS011;69692;55.820;37.490;2023-09-19T04:07:16;13.30;;;9.00;;
80381;SDS011;69692;55.820;37.490;2023-09-19T04:09:42;15.48;;;9.13;;
80381;SDS011;69692;55.820;37.490;2023-09-19T04:12:08;14.18;;;10.13;;
80381;SDS011;69692;55.820;37.490;2023-09-19T04:14:34;14.27;;;8.85;;
80381;SDS011;69692;55.820;37.490;2023-09-19T04:17:00;14.43;;;10.55;;
80381;SDS011;69692;55.820;37.490;2023-09-19T04:19:26;13.75;;;9.82;;
80381;SDS011;69692;55.820;37.490;2023-09-19T04:21:52;17.10;;;10.43;;
80381;SDS011;69692;55.820;37.490;2023-09-19T04:24:18;15.07;;;10.65;;
80381;SDS011;69692;55.820;37.490;2023-09-19T04:26:45;13.45;;;9.52;;
80381;SDS011;69692;55.820;37.490;2023-09-19T04:29:11;18.05;;;11.05;;
80381;SDS011;69692;55.820;37.490;2023-09-19T04:31:39;14.60;;;11.00;;
80381;SDS011;69692;55.820;37.490;2023-09-19T04:34:06;13.82;;;9.82;;
80381;SDS011;69692;55.820;37.490;2023-09-19T04:36:34;16.80;;;11.32;;
80381;SDS011;69692;55.820;37.490;2023-09-19T04:39:02;15.95;;;11.40;;
80381;SDS011;69692;55.820;37.490;2023-09-19T04:41:32;14.63;;;10.18;;
80381;SDS011;69692;55.820;37.490;2023-09-19T04:43:59;16.42;;;11.52;;
80381;SDS011;69692;55.820;37.490;2023-09-19T04:46:26;16.80;;;10.20;;
80381;SDS011;69692;55.820;37.490;2023-09-19T04:48:52;15.48;;;11.45;;
80381;SDS011;69692;55.820;37.490;2023-09-19T04:51:18;16.63;;;11.63;;
80381;SDS011;69692;55.820;37.490;2023-09-19T04:53:46;17.33;;;12.70;;
80381;SDS011;69692;55.820;37.490;2023-09-19T04:56:13;18.55;;;11.32;;
80381;SDS011;69692;55.820;37.490;2023-09-19T04:58:39;20.95;;;13.52;;
80381;SDS011;69692;55.820;37.490;2023-09-19T05:01:05;17.38;;;13.57;;
80381;SDS011;69692;55.820;37.490;2023-09-19T05:03:31;20.05;;;14.68;;
80381;SDS011;69692;55.820;37.490;2023-09-19T05:05:57;20.10;;;14.60;;
80381;SDS011;69692;55.820;37.490;2023-09-19T05:08:22;19.80;;;13.10;;
80381;SDS011;69692;55.820;37.490;2023-09-19T05:10:49;22.58;;;16.00;;
80381;SDS011;69692;55.820;37.490;2023-09-19T05:13:15;23.73;;;14.40;;
80381;SDS011;69692;55.820;37.490;2023-09-19T05:15:41;26.15;;;15.50;;
80381;SDS011;69692;55.820;37.490;2023-09-19T05:18:07;19.00;;;12.98;;
80381;SDS011;69692;55.820;37.490;2023-09-19T05:20:33;19.20;;;12.18;;
80381;SDS011;69692;55.820;37.490;2023-09-19T05:23:02;18.10;;;15.02;;
80381;SDS011;69692;55.820;37.490;2023-09-19T05:25:35;20.52;;;13.23;;
80381;SDS011;69692;55.820;37.490;2023-09-19T05:28:08;21.50;;;13.00;;
80381;SDS011;69692;55.820;37.490;2023-09-19T05:30:37;20.83;;;13.43;;
80381;SDS011;69692;55.820;37.490;2023-09-19T05:33:06;19.42;;;14.35;;
80381;SDS011;69692;55.820;37.490;2023-09-19T05:35:33;21.67;;;14.57;;
80381;SDS011;69692;55.820;37.490;2023-09-19T05:38:02;19.38;;;11.68;;
80381;SDS011;69692;55.820;37.490;2023-09-19T05:40:28;17.52;;;12.63;;
80381;SDS011;69692;55.820;37.490;2023-09-19T05:42:54;18.60;;;12.90;;
80381;SDS011;69692;55.820;37.490;2023-09-19T05:45:19;20.08;;;10.73;;
80381;SDS011;69692;55.820;37.490;2023-09-19T05:47:51;23.52;;;12.27;;
80381;SDS011;69692;55.820;37.490;2023-09-19T05:50:21;23.85;;;12.48;;
80381;SDS011;69692;55.820;37.490;2023-09-19T05:52:53;20.48;;;12.38;;
80381;SDS011;69692;55.820;37.490;2023-09-19T05:55:21;17.40;;;12.50;;
80381;SDS011;69692;55.820;37.490;2023-09-19T05:57:51;16.35;;;13.40;;
80381;SDS011;69692;55.820;37.490;2023-09-19T06:00:21;17.38;;;13.05;;
80381;SDS011;69692;55.820;37.490;2023-09-19T06:02:54;15.32;;;10.98;;
80381;SDS011;69692;55.820;37.490;2023-09-19T06:05:22;15.40;;;10.15;;
80381;SDS011;69692;55.820;37.490;2023-09-19T06:07:49;18.00;;;11.88;;
80381;SDS011;69692;55.820;37.490;2023-09-19T06:10:15;16.95;;;11.13;;
80381;SDS011;69692;55.820;37.490;2023-09-19T06:12:44;20.80;;;13.45;;
80381;SDS011;69692;55.820;37.490;2023-09-19T06:15:12;22.75;;;12.73;;
80381;SDS011;69692;55.820;37.490;2023-09-19T06:17:54;16.63;;;12.10;;
80381;SDS011;69692;55.820;37.490;2023-09-19T06:20:22;20.08;;;12.65;;
80381;SDS011;69692;55.820;37.490;2023-09-19T06:22:49;21.40;;;13.30;;
80381;SDS011;69692;55.820;37.490;2023-09-19T06:25:15;16.63;;;13.10;;
80381;SDS011;69692;55.820;37.490;2023-09-19T06:27:45;17.75;;;13.38;;
80381;SDS011;69692;55.820;37.490;2023-09-19T06:30:12;20.55;;;13.32;;
80381;SDS011;69692;55.820;37.490;2023-09-19T06:32:43;17.85;;;13.90;;
80381;SDS011;69692;55.820;37.490;2023-09-19T06:35:13;21.65;;;13.30;;
80381;SDS011;69692;55.820;37.490;2023-09-19T06:37:41;18.65;;;14.57;;
80381;SDS011;69692;55.820;37.490;2023-09-19T06:42:39;23.35;;;13.40;;
80381;SDS011;69692;55.820;37.490;2023-09-19T06:45:16;18.48;;;13.93;;
80381;SDS011;69692;55.820;37.490;2023-09-19T06:47:48;22.58;;;12.82;;
80381;SDS011;69692;55.820;37.490;2023-09-19T06:50:20;22.80;;;14.02;;
80381;SDS011;69692;55.820;37.490;2023-09-19T06:52:51;22.38;;;15.43;;
80381;SDS011;69692;55.820;37.490;2023-09-19T06:55:19;24.95;;;14.45;;
80381;SDS011;69692;55.820;37.490;2023-09-19T06:57:50;20.10;;;13.93;;
80381;SDS011;69692;55.820;37.490;2023-09-19T07:00:16;23.30;;;16.02;;
80381;SDS011;69692;55.820;37.490;2023-09-19T07:03:03;23.60;;;15.52;;
80381;SDS011;69692;55.820;37.490;2023-09-19T07:05:39;24.25;;;16.23;;
80381;SDS011;69692;55.820;37.490;2023-09-19T07:08:06;24.17;;;16.83;;
80381;SDS011;69692;55.820;37.490;2023-09-19T07:10:34;21.20;;;14.75;;
80381;SDS011;69692;55.820;37.490;2023-09-19T07:13:00;21.65;;;14.07;;
80381;SDS011;69692;55.820;37.490;2023-09-19T07:15:28;19.52;;;12.90;;
80381;SDS011;69692;55.820;37.490;2023-09-19T07:20:26;18.20;;;13.88;;
80381;SDS011;69692;55.820;37.490;2023-09-19T07:22:53;25.60;;;16.67;;
80381;SDS011;69692;55.820;37.490;2023-09-19T07:25:25;26.25;;;15.20;;
80381;SDS011;69692;55.820;37.490;2023-09-19T07:27:51;25.75;;;14.15;;
80381;SDS011;69692;55.820;37.490;2023-09-19T07:30:17;28.40;;;16.33;;
80381;SDS011;69692;55.820;37.490;2023-09-19T07:32:43;20.08;;;15.85;;
80381;SDS011;69692;55.820;37.490;2023-09-19T07:35:09;20.15;;;14.35;;
80381;SDS011;69692;55.820;37.490;2023-09-19T07:37:35;24.23;;;14.85;;
80381;SDS011;69692;55.820;37.490;2023-09-19T07:40:05;20.60;;;14.30;;
80381;SDS011;69692;55.820;37.490;2023-09-19T07:42:35;20.15;;;14.57;;
80381;SDS011;69692;55.820;37.490;2023-09-19T07:45:04;26.20;;;16.08;;
80381;SDS011;69692;55.820;37.490;2023-09-19T07:47:31;20.15;;;15.27;;
80381;SDS011;69692;55.820;37.490;2023-09-19T07:49:58;19.77;;;15.07;;
80381;SDS011;69692;55.820;37.490;2023-09-19T07:52:26;21.98;;;15.10;;
80381;SDS011;69692;55.820;37.490;2023-09-19T07:54:53;23.38;;;14.63;;
80381;SDS011;69692;55.820;37.490;2023-09-19T07:57:19;28.67;;;16.05;;
80381;SDS011;69692;55.820;37.490;2023-09-19T07:59:45;23.35;;;16.20;;
80381;SDS011;69692;55.820;37.490;2023-09-19T08:02:11;25.83;;;14.70;;
80381;SDS011;69692;55.820;37.490;2023-09-19T08:04:44;21.35;;;16.23;;
80381;SDS011;69692;55.820;37.490;2023-09-19T08:07:14;27.42;;;15.48;;
80381;SDS011;69692;55.820;37.490;2023-09-19T08:09:40;22.08;;;16.30;;
80381;SDS011;69692;55.820;37.490;2023-09-19T08:12:07;21.73;;;15.70;;
80381;SDS011;69692;55.820;37.490;2023-09-19T08:14:36;28.63;;;16.98;;
80381;SDS011;69692;55.820;37.490;2023-09-19T08:17:06;25.92;;;15.27;;
80381;SDS011;69692;55.820;37.490;2023-09-19T08:19:33;25.75;;;15.65;;
80381;SDS011;69692;55.820;37.490;2023-09-19T08:22:00;21.42;;;16.48;;
80381;SDS011;69692;55.820;37.490;2023-09-19T08:24:27;22.30;;;16.58;;
80381;SDS011;69692;55.820;37.490;2023-09-19T08:26:54;25.27;;;17.25;;
80381;SDS011;69692;55.820;37.490;2023-09-19T08:29:24;26.13;;;14.82;;
80381;SDS011;69692;55.820;37.490;2023-09-19T08:31:54;26.40;;;16.15;;
80381;SDS011;69692;55.820;37.490;2023-09-19T08:34:22;28.55;;;17.45;;
80381;SDS011;69692;55.820;37.490;2023-09-19T08:36:52;25.35;;;16.30;;
80381;SDS011;69692;55.820;37.490;2023-09-19T08:39:25;19.02;;;15.00;;
80381;SDS011;69692;55.820;37.490;2023-09-19T08:42:00;24.58;;;15.77;;
80381;SDS011;69692;55.820;37.490;2023-09-19T08:44:27;22.95;;;16.10;;
80381;SDS011;69692;55.820;37.490;2023-09-19T08:47:01;22.17;;;15.02;;
80381;SDS011;69692;55.820;37.490;2023-09-19T08:49:41;25.67;;;14.75;;
80381;SDS011;69692;55.820;37.490;2023-09-19T08:52:35;23.33;;;16.67;;
80381;SDS011;69692;55.820;37.490;2023-09-19T08:55:05;25.17;;;15.82;;
80381;SDS011;69692;55.820;37.490;2023-09-19T08:57:35;23.15;;;16.30;;
80381;SDS011;69692;55.820;37.490;2023-09-19T09:00:04;24.02;;;16.27;;
80381;SDS011;69692;55.820;37.490;2023-09-19T09:02:37;25.45;;;16.40;;
80381;SDS011;69692;55.820;37.490;2023-09-19T09:05:09;22.35;;;14.45;;
80381;SDS011;69692;55.820;37.490;2023-09-19T09:07:40;24.10;;;14.75;;
80381;SDS011;69692;55.820;37.490;2023-09-19T09:10:06;24.08;;;17.20;;
80381;SDS011;69692;55.820;37.490;2023-09-19T09:12:33;27.13;;;15.90;;
80381;SDS011;69692;55.820;37.490;2023-09-19T09:15:02;23.80;;;16.60;;
80381;SDS011;69692;55.820;37.490;2023-09-19T09:17:31;23.55;;;15.95;;
80381;SDS011;69692;55.820;37.490;2023-09-19T09:19:57;22.83;;;14.35;;
80381;SDS011;69692;55.820;37.490;2023-09-19T09:22:23;22.45;;;15.85;;
80381;SDS011;69692;55.820;37.490;2023-09-19T09:27:30;23.88;;;14.70;;
80381;SDS011;69692;55.820;37.490;2023-09-19T09:29:59;26.85;;;15.38;;
80381;SDS011;69692;55.820;37.490;2023-09-19T09:32:26;21.50;;;15.82;;
80381;SDS011;69692;55.820;37.490;2023-09-19T09:34:59;29.42;;;16.60;;
80381;SDS011;69692;55.820;37.490;2023-09-19T09:37:27;24.48;;;15.95;;
80381;SDS011;69692;55.820;37.490;2023-09-19T09:42:33;24.55;;;16.15;;
80381;SDS011;69692;55.820;37.490;2023-09-19T09:45:15;31.63;;;17.27;;
80381;SDS011;69692;55.820;37.490;2023-09-19T09:48:03;23.25;;;16.15;;
80381;SDS011;69692;55.820;37.490;2023-09-19T09:50:32;22.83;;;15.80;;
80381;SDS011;69692;55.820;37.490;2023-09-19T09:53:20;26.38;;;17.02;;
80381;SDS011;69692;55.820;37.490;2023-09-19T09:56:01;25.63;;;17.70;;
80381;SDS011;69692;55.820;37.490;2023-09-19T09:58:49;21.80;;;15.63;;
80381;SDS011;69692;55.820;37.490;2023-09-19T10:01:19;24.83;;;14.90;;
80381;SDS011;69692;55.820;37.490;2023-09-19T10:03:46;21.42;;;15.60;;
80381;SDS011;69692;55.820;37.490;2023-09-19T10:06:17;20.90;;;14.93;;
80381;SDS011;69692;55.820;37.490;2023-09-19T10:09:06;24.27;;;16.80;;
80381;SDS011;69692;55.820;37.490;2023-09-19T10:11:43;20.88;;;16.25;;
80381;SDS011;69692;55.820;37.490;2023-09-19T10:14:11;24.65;;;14.80;;
80381;SDS011;69692;55.820;37.490;2023-09-19T10:16:40;23.27;;;16.25;;
80381;SDS011;69692;55.820;37.490;2023-09-19T10:19:10;25.40;;;17.20;;
80381;SDS011;69692;55.820;37.490;2023-09-19T10:21:41;20.75;;;16.10;;
80381;SDS011;69692;55.820;37.490;2023-09-19T10:24:08;22.85;;;17.40;;
80381;SDS011;69692;55.820;37.490;2023-09-19T10:26:35;24.95;;;17.60;;
80381;SDS011;69692;55.820;37.490;2023-09-19T10:29:05;23.60;;;14.90;;
80381;SDS011;69692;55.820;37.490;2023-09-19T10:31:32;21.70;;;16.65;;
80381;SDS011;69692;55.820;37.490;2023-09-19T10:34:02;25.67;;;17.65;;
80381;SDS011;69692;55.820;37.490;2023-09-19T10:36:32;22.75;;;15.35;;
80381;SDS011;69692;55.820;37.490;2023-09-19T10:39:00;24.95;;;16.83;;
80381;SDS011;69692;55.820;37.490;2023-09-19T10:41:32;24.20;;;17.90;;
80381;SDS011;69692;55.820;37.490;2023-09-19T10:44:03;24.77;;;17.25;;
80381;SDS011;69692;55.820;37.490;2023-09-19T10:46:33;23.60;;;14.45;;
80381;SDS011;69692;55.820;37.490;2023-09-19T10:48:59;22.98;;;17.13;;
80381;SDS011;69692;55.820;37.490;2023-09-19T10:51:29;23.63;;;16.20;;
80381;SDS011;69692;55.820;37.490;2023-09-19T10:54:11;22.45;;;16.27;;
80381;SDS011;69692;55.820;37.490;2023-09-19T10:56:42;30.90;;;16.88;;
80381;SDS011;69692;55.820;37.490;2023-09-19T10:59:13;23.70;;;16.63;;
80381;SDS011;69692;55.820;37.490;2023-09-19T11:01:47;26.70;;;16.95;;
80381;SDS011;69692;55.820;37.490;2023-09-19T11:04:37;21.38;;;16.80;;
80381;SDS011;69692;55.820;37.490;2023-09-19T11:07:08;24.67;;;18.10;;
80381;SDS011;69692;55.820;37.490;2023-09-19T11:15:06;24.92;;;17.88;;
80381;SDS011;69692;55.820;37.490;2023-09-19T11:30:35;21.23;;;16.33;;
80381;SDS011;69692;55.820;37.490;2023-09-19T11:36:04;23.45;;;16.45;;
80381;SDS011;69692;55.820;37.490;2023-09-19T11:43:53;25.00;;;17.25;;
80381;SDS011;69692;55.820;37.490;2023-09-19T11:46:25;23.48;;;15.93;;
80381;SDS011;69692;55.820;37.490;2023-09-19T11:48:52;20.70;;;15.90;;
80381;SDS011;69692;55.820;37.490;2023-09-19T11:51:18;25.80;;;14.70;;
80381;SDS011;69692;55.820;37.490;2023-09-19T11:53:50;24.48;;;14.57;;
80381;SDS011;69692;55.820;37.490;2023-09-19T11:56:20;20.63;;;14.75;;
80381;SDS011;69692;55.820;37.490;2023-09-19T11:58:50;22.33;;;14.82;;
80381;SDS011;69692;55.820;37.490;2023-09-19T12:01:23;26.40;;;17.02;;
80381;SDS011;69692;55.820;37.490;2023-09-19T12:03:52;24.20;;;16.27;;
80381;SDS011;69692;55.820;37.490;2023-09-19T12:06:23;20.38;;;14.57;;
80381;SDS011;69692;55.820;37.490;2023-09-19T12:08:50;26.20;;;14.07;;
80381;SDS011;69692;55.820;37.490;2023-09-19T12:11:19;21.45;;;16.20;;
80381;SDS011;69692;55.820;37.490;2023-09-19T12:13:47;21.13;;;14.00;;
80381;SDS011;69692;55.820;37.490;2023-09-19T12:16:18;23.13;;;14.95;;
80381;SDS011;69692;55.820;37.490;2023-09-19T12:18:49;23.48;;;15.55;;
80381;SDS011;69692;55.820;37.490;2023-09-19T12:23:59;25.35;;;15.30;;
80381;SDS011;69692;55.820;37.490;2023-09-19T12:26:39;20.05;;;13.13;;
80381;SDS011;69692;55.820;37.490;2023-09-19T12:29:16;20.33;;;14.93;;
80381;SDS011;69692;55.820;37.490;2023-09-19T12:31:48;25.05;;;15.52;;
80381;SDS011;69692;55.820;37.490;2023-09-19T12:34:25;22.08;;;14.75;;
80381;SDS011;69692;55.820;37.490;2023-09-19T12:37:14;21.45;;;13.07;;
80381;SDS011;69692;55.820;37.490;2023-09-19T12:39:46;20.77;;;15.20;;
80381;SDS011;69692;55.820;37.490;2023-09-19T12:42:19;20.67;;;14.23;;
80381;SDS011;69692;55.820;37.490;2023-09-19T12:44:50;25.77;;;15.60;;
80381;SDS011;69692;55.820;37.490;2023-09-19T12:47:23;23.88;;;13.73;;
80381;SDS011;69692;55.820;37.490;2023-09-19T12:50:09;19.30;;;12.15;;
80381;SDS011;69692;55.820;37.490;2023-09-19T12:52:49;25.52;;;12.88;;
80381;SDS011;69692;55.820;37.490;2023-09-19T12:55:25;19.10;;;12.35;;
80381;SDS011;69692;55.820;37.490;2023-09-19T12:57:59;21.90;;;13.25;;
80381;SDS011;69692;55.820;37.490;2023-09-19T13:00:32;26.60;;;12.30;;
80381;SDS011;69692;55.820;37.490;2023-09-19T13:03:12;17.38;;;13.02;;
80381;SDS011;69692;55.820;37.490;2023-09-19T13:05:48;22.98;;;12.55;;
80381;SDS011;69692;55.820;37.490;2023-09-19T13:08:26;20.35;;;13.50;;
80381;SDS011;69692;55.820;37.490;2023-09-19T13:11:05;21.75;;;12.65;;
80381;SDS011;69692;55.820;37.490;2023-09-19T13:13:46;24.08;;;12.05;;
80381;SDS011;69692;55.820;37.490;2023-09-19T13:16:21;16.20;;;13.07;;
80381;SDS011;69692;55.820;37.490;2023-09-19T13:18:50;20.83;;;13.68;;
80381;SDS011;69692;55.820;37.490;2023-09-19T13:21:27;21.20;;;11.73;;
80381;SDS011;69692;55.820;37.490;2023-09-19T13:24:24;19.73;;;13.88;;
80381;SDS011;69692;55.820;37.490;2023-09-19T13:26:56;23.00;;;12.48;;
80381;SDS011;69692;55.820;37.490;2023-09-19T13:29:22;22.42;;;11.23;;
80381;SDS011;69692;55.820;37.490;2023-09-19T13:31:49;21.17;;;12.40;;
80381;SDS011;69692;55.820;37.490;2023-09-19T13:34:16;21.38;;;10.80;;
80381;SDS011;69692;55.820;37.490;2023-09-19T13:36:43;17.35;;;11.63;;
80381;SDS011;69692;55.820;37.490;2023-09-19T13:39:09;20.50;;;12.00;;
80381;SDS011;69692;55.820;37.490;2023-09-19T13:41:38;17.77;;;11.25;;
80381;SDS011;69692;55.820;37.490;2023-09-19T13:44:04;26.67;;;13.90;;
80381;SDS011;69692;55.820;37.490;2023-09-19T13:46:31;19.73;;;12.80;;
80381;SDS011;69692;55.820;37.490;2023-09-19T13:49:00;20.38;;;10.18;;
80381;SDS011;69692;55.820;37.490;2023-09-19T13:51:30;20.27;;;10.15;;
80381;SDS011;69692;55.820;37.490;2023-09-19T13:53:56;22.85;;;9.60;;
80381;SDS011;69692;55.820;37.490;2023-09-19T13:56:22;19.33;;;11.13;;
80381;SDS011;69692;55.820;37.490;2023-09-19T13:58:49;17.27;;;10.10;;
80381;SDS011;69692;55.820;37.490;2023-09-19T14:01:15;17.95;;;9.95;;
80381;SDS011;69692;55.820;37.490;2023-09-19T14:03:41;13.30;;;8.65;;
80381;SDS011;69692;55.820;37.490;2023-09-19T14:06:12;12.13;;;7.82;;
80381;SDS011;69692;55.820;37.490;2023-09-19T14:08:39;13.85;;;8.43;;
80381;SDS011;69692;55.820;37.490;2023-09-19T14:11:08;13.10;;;7.63;;
80381;SDS011;69692;55.820;37.490;2023-09-19T14:13:34;14.27;;;8.70;;
80381;SDS011;69692;55.820;37.490;2023-09-19T14:16:06;10.43;;;7.55;;
80381;SDS011;69692;55.820;37.490;2023-09-19T14:18:34;10.65;;;7.88;;
80381;SDS011;69692;55.820;37.490;2023-09-19T14:21:06;11.73;;;7.70;;
80381;SDS011;69692;55.820;37.490;2023-09-19T14:26:03;10.73;;;6.97;;
80381;SDS011;69692;55.820;37.490;2023-09-19T14:28:30;12.70;;;8.77;;
80381;SDS011;69692;55.820;37.490;2023-09-19T14:31:06;12.95;;;7.78;;
80381;SDS011;69692;55.820;37.490;2023-09-19T14:33:33;11.25;;;7.95;;
80381;SDS011;69692;55.820;37.490;2023-09-19T14:36:02;13.40;;;7.68;;
80381;SDS011;69692;55.820;37.490;2023-09-19T14:38:29;13.77;;;6.72;;
80381;SDS011;69692;55.820;37.490;2023-09-19T14:41:01;9.93;;;7.93;;
80381;SDS011;69692;55.820;37.490;2023-09-19T14:43:27;11.50;;;7.85;;
80381;SDS011;69692;55.820;37.490;2023-09-19T14:45:56;16.17;;;8.02;;
80381;SDS011;69692;55.820;37.490;2023-09-19T14:48:23;14.20;;;7.43;;
80381;SDS011;69692;55.820;37.490;2023-09-19T14:50:52;15.90;;;8.55;;
80381;SDS011;69692;55.820;37.490;2023-09-19T14:53:18;14.20;;;7.82;;
80381;SDS011;69692;55.820;37.490;2023-09-19T14:55:44;15.80;;;9.18;;
80381;SDS011;69692;55.820;37.490;2023-09-19T14:58:10;11.35;;;7.05;;
80381;SDS011;69692;55.820;37.490;2023-09-19T15:00:37;12.32;;;7.38;;
80381;SDS011;69692;55.820;37.490;2023-09-19T15:03:05;17.08;;;6.60;;
80381;SDS011;69692;55.820;37.490;2023-09-19T15:05:31;10.57;;;6.40;;
80381;SDS011;69692;55.820;37.490;2023-09-19T15:07:57;17.20;;;7.03;;
80381;SDS011;69692;55.820;37.490;2023-09-19T15:10:23;15.88;;;7.80;;
80381;SDS011;69692;55.820;37.490;2023-09-19T15:12:49;11.10;;;7.05;;
80381;SDS011;69692;55.820;37.490;2023-09-19T15:15:16;14.27;;;7.90;;
80381;SDS011;69692;55.820;37.490;2023-09-19T15:17:42;13.40;;;7.38;;
80381;SDS011;69692;55.820;37.490;2023-09-19T15:20:08;12.10;;;6.60;;
80381;SDS011;69692;55.820;37.490;2023-09-19T15:22:34;8.77;;;6.05;;
80381;SDS011;69692;55.820;37.490;2023-09-19T15:25:01;11.73;;;7.40;;